sensor_id;sensor_type;location;lat;lon;timestamp;P1;durP1;ratioP1;P2;durP2;ratioP2
18574;SDS011;9417;16.484;102.872;2023-01-15T00:01:24;58.15;;;40.28;;
18574;SDS011;9417;16.484;102.872;2023-01-15T00:03:34;62.35;;;43.03;;
18574;SDS011;9417;16.484;102.872;2023-01-15T00:05:41;61.75;;;41.45;;
18574;SDS011;9417;16.484;102.872;2023-01-15T00:07:48;59.80;;;42.58;;
18574;SDS011;9417;16.484;102.872;2023-01-15T00:09:56;56.17;;;40.70;;
18574;SDS011;9417;16.484;102.872;2023-01-15T00:12:03;56.85;;;41.65;;
18574;SDS011;9417;16.484;102.872;2023-01-15T00:14:11;58.72;;;43.25;;
18574;SDS011;9417;16.484;102.872;2023-01-15T00:16:19;60.95;;;44.30;;
18574;SDS011;9417;16.484;102.872;2023-01-15T00:18:27;61.47;;;43.35;;
18574;SDS011;9417;16.484;102.872;2023-01-15T00:20:36;67.57;;;46.88;;
18574;SDS011;9417;16.484;102.872;2023-01-15T00:22:43;60.30;;;44.78;;
18574;SDS011;9417;16.484;102.872;2023-01-15T00:24:50;76.07;;;51.72;;
18574;SDS011;9417;16.484;102.872;2023-01-15T00:27:14;67.07;;;47.72;;
18574;SDS011;9417;16.484;102.872;2023-01-15T00:29:37;71.03;;;51.08;;
18574;SDS011;9417;16.484;102.872;2023-01-15T00:31:50;66.85;;;47.10;;
18574;SDS011;9417;16.484;102.872;2023-01-15T00:33:59;69.95;;;49.15;;
18574;SDS011;9417;16.484;102.872;2023-01-15T00:36:08;67.60;;;49.28;;
18574;SDS011;9417;16.484;102.872;2023-01-15T00:38:15;74.95;;;52.45;;
18574;SDS011;9417;16.484;102.872;2023-01-15T00:40:22;81.65;;;53.67;;
18574;SDS011;9417;16.484;102.872;2023-01-15T00:42:29;97.88;;;67.47;;
18574;SDS011;9417;16.484;102.872;2023-01-15T00:44:38;98.07;;;67.38;;
18574;SDS011;9417;16.484;102.872;2023-01-15T00:46:45;113.93;;;79.28;;
18574;SDS011;9417;16.484;102.872;2023-01-15T00:48:55;120.05;;;81.30;;
18574;SDS011;9417;16.484;102.872;2023-01-15T00:51:02;105.80;;;72.20;;
18574;SDS011;9417;16.484;102.872;2023-01-15T00:53:13;100.00;;;65.07;;
18574;SDS011;9417;16.484;102.872;2023-01-15T00:55:19;87.15;;;61.55;;
18574;SDS011;9417;16.484;102.872;2023-01-15T00:57:27;79.65;;;56.40;;
18574;SDS011;9417;16.484;102.872;2023-01-15T00:59:34;79.70;;;58.03;;
18574;SDS011;9417;16.484;102.872;2023-01-15T01:01:41;75.47;;;54.67;;
18574;SDS011;9417;16.484;102.872;2023-01-15T01:03:48;73.75;;;49.45;;
18574;SDS011;9417;16.484;102.872;2023-01-15T01:05:59;70.38;;;46.95;;
18574;SDS011;9417;16.484;102.872;2023-01-15T01:08:06;68.47;;;44.72;;
18574;SDS011;9417;16.484;102.872;2023-01-15T01:10:15;63.20;;;45.67;;
18574;SDS011;9417;16.484;102.872;2023-01-15T01:12:22;64.53;;;44.83;;
18574;SDS011;9417;16.484;102.872;2023-01-15T01:14:30;67.88;;;44.17;;
18574;SDS011;9417;16.484;102.872;2023-01-15T01:16:38;66.18;;;44.85;;
18574;SDS011;9417;16.484;102.872;2023-01-15T01:18:45;69.18;;;46.63;;
18574;SDS011;9417;16.484;102.872;2023-01-15T01:20:52;64.97;;;45.42;;
18574;SDS011;9417;16.484;102.872;2023-01-15T01:23:00;60.88;;;43.03;;
18574;SDS011;9417;16.484;102.872;2023-01-15T01:25:08;60.10;;;43.50;;
18574;SDS011;9417;16.484;102.872;2023-01-15T01:27:17;60.35;;;42.60;;
18574;SDS011;9417;16.484;102.872;2023-01-15T01:29:24;56.63;;;40.60;;
18574;SDS011;9417;16.484;102.872;2023-01-15T01:31:31;55.75;;;40.80;;
18574;SDS011;9417;16.484;102.872;2023-01-15T01:33:39;55.00;;;38.75;;
18574;SDS011;9417;16.484;102.872;2023-01-15T01:35:47;55.50;;;39.35;;
18574;SDS011;9417;16.484;102.872;2023-01-15T01:37:54;60.42;;;41.50;;
18574;SDS011;9417;16.484;102.872;2023-01-15T01:40:01;60.63;;;40.60;;
18574;SDS011;9417;16.484;102.872;2023-01-15T01:42:10;60.05;;;40.13;;
18574;SDS011;9417;16.484;102.872;2023-01-15T01:47:03;58.20;;;40.75;;
18574;SDS011;9417;16.484;102.872;2023-01-15T01:49:12;57.53;;;39.45;;
18574;SDS011;9417;16.484;102.872;2023-01-15T01:51:20;57.53;;;38.47;;
18574;SDS011;9417;16.484;102.872;2023-01-15T01:53:29;50.95;;;36.75;;
18574;SDS011;9417;16.484;102.872;2023-01-15T01:55:38;56.50;;;38.08;;
18574;SDS011;9417;16.484;102.872;2023-01-15T01:57:45;52.70;;;37.92;;
18574;SDS011;9417;16.484;102.872;2023-01-15T01:59:55;51.22;;;37.08;;
18574;SDS011;9417;16.484;102.872;2023-01-15T02:02:16;51.72;;;35.58;;
18574;SDS011;9417;16.484;102.872;2023-01-15T02:04:25;46.77;;;34.10;;
18574;SDS011;9417;16.484;102.872;2023-01-15T02:06:33;49.83;;;34.35;;
18574;SDS011;9417;16.484;102.872;2023-01-15T02:08:42;53.05;;;33.72;;
18574;SDS011;9417;16.484;102.872;2023-01-15T02:10:53;49.03;;;33.42;;
18574;SDS011;9417;16.484;102.872;2023-01-15T02:13:09;46.45;;;32.13;;
18574;SDS011;9417;16.484;102.872;2023-01-15T02:15:21;49.05;;;32.25;;
18574;SDS011;9417;16.484;102.872;2023-01-15T02:17:37;45.38;;;30.55;;
18574;SDS011;9417;16.484;102.872;2023-01-15T02:19:50;43.65;;;29.90;;
18574;SDS011;9417;16.484;102.872;2023-01-15T02:22:15;41.95;;;30.77;;
18574;SDS011;9417;16.484;102.872;2023-01-15T02:24:34;41.90;;;29.45;;
18574;SDS011;9417;16.484;102.872;2023-01-15T02:29:22;42.73;;;28.87;;
18574;SDS011;9417;16.484;102.872;2023-01-15T02:31:35;38.28;;;28.45;;
18574;SDS011;9417;16.484;102.872;2023-01-15T02:33:46;39.90;;;28.27;;
18574;SDS011;9417;16.484;102.872;2023-01-15T02:35:57;37.83;;;27.50;;
18574;SDS011;9417;16.484;102.872;2023-01-15T02:38:10;39.05;;;26.45;;
18574;SDS011;9417;16.484;102.872;2023-01-15T02:40:23;34.15;;;23.55;;
18574;SDS011;9417;16.484;102.872;2023-01-15T02:42:35;38.63;;;23.80;;
18574;SDS011;9417;16.484;102.872;2023-01-15T02:44:45;32.58;;;23.00;;
18574;SDS011;9417;16.484;102.872;2023-01-15T02:46:54;31.60;;;23.00;;
18574;SDS011;9417;16.484;102.872;2023-01-15T02:49:04;32.30;;;22.45;;
18574;SDS011;9417;16.484;102.872;2023-01-15T02:51:16;32.20;;;21.73;;
18574;SDS011;9417;16.484;102.872;2023-01-15T02:53:28;28.38;;;20.15;;
18574;SDS011;9417;16.484;102.872;2023-01-15T02:55:39;31.65;;;22.33;;
18574;SDS011;9417;16.484;102.872;2023-01-15T02:57:56;30.17;;;20.92;;
18574;SDS011;9417;16.484;102.872;2023-01-15T03:00:08;27.42;;;19.83;;
18574;SDS011;9417;16.484;102.872;2023-01-15T03:02:19;29.10;;;20.55;;
18574;SDS011;9417;16.484;102.872;2023-01-15T03:04:30;26.92;;;19.90;;
18574;SDS011;9417;16.484;102.872;2023-01-15T03:06:42;31.70;;;20.25;;
18574;SDS011;9417;16.484;102.872;2023-01-15T03:08:56;26.63;;;19.65;;
18574;SDS011;9417;16.484;102.872;2023-01-15T03:11:07;32.58;;;18.90;;
18574;SDS011;9417;16.484;102.872;2023-01-15T03:13:24;26.00;;;17.50;;
18574;SDS011;9417;16.484;102.872;2023-01-15T03:15:41;27.13;;;18.75;;
18574;SDS011;9417;16.484;102.872;2023-01-15T03:18:10;21.98;;;17.67;;
18574;SDS011;9417;16.484;102.872;2023-01-15T03:20:22;22.80;;;18.25;;
18574;SDS011;9417;16.484;102.872;2023-01-15T03:22:32;22.33;;;17.65;;
18574;SDS011;9417;16.484;102.872;2023-01-15T03:24:41;23.70;;;17.63;;
18574;SDS011;9417;16.484;102.872;2023-01-15T03:26:53;27.00;;;17.77;;
18574;SDS011;9417;16.484;102.872;2023-01-15T03:29:03;20.00;;;16.38;;
18574;SDS011;9417;16.484;102.872;2023-01-15T03:31:13;21.77;;;16.02;;
18574;SDS011;9417;16.484;102.872;2023-01-15T03:33:21;20.40;;;14.65;;
18574;SDS011;9417;16.484;102.872;2023-01-15T03:35:43;23.42;;;15.70;;
18574;SDS011;9417;16.484;102.872;2023-01-15T03:38:18;21.50;;;16.05;;
18574;SDS011;9417;16.484;102.872;2023-01-15T03:40:28;18.47;;;15.43;;
18574;SDS011;9417;16.484;102.872;2023-01-15T03:42:39;22.50;;;14.88;;
18574;SDS011;9417;16.484;102.872;2023-01-15T03:44:56;19.27;;;15.35;;
18574;SDS011;9417;16.484;102.872;2023-01-15T03:47:11;23.73;;;15.38;;
18574;SDS011;9417;16.484;102.872;2023-01-15T03:49:39;21.75;;;15.15;;
18574;SDS011;9417;16.484;102.872;2023-01-15T03:52:13;21.48;;;15.60;;
18574;SDS011;9417;16.484;102.872;2023-01-15T03:54:32;20.05;;;14.85;;
18574;SDS011;9417;16.484;102.872;2023-01-15T03:56:46;24.70;;;15.65;;
18574;SDS011;9417;16.484;102.872;2023-01-15T03:59:02;21.15;;;15.95;;
18574;SDS011;9417;16.484;102.872;2023-01-15T04:01:30;21.77;;;16.23;;
18574;SDS011;9417;16.484;102.872;2023-01-15T04:03:41;23.23;;;17.40;;
18574;SDS011;9417;16.484;102.872;2023-01-15T04:05:53;22.95;;;16.15;;
18574;SDS011;9417;16.484;102.872;2023-01-15T04:08:03;22.33;;;16.08;;
18574;SDS011;9417;16.484;102.872;2023-01-15T04:10:10;27.13;;;16.38;;
18574;SDS011;9417;16.484;102.872;2023-01-15T04:12:19;21.95;;;16.33;;
18574;SDS011;9417;16.484;102.872;2023-01-15T04:14:27;22.63;;;15.45;;
18574;SDS011;9417;16.484;102.872;2023-01-15T04:16:43;23.75;;;16.13;;
18574;SDS011;9417;16.484;102.872;2023-01-15T04:18:50;19.13;;;14.57;;
18574;SDS011;9417;16.484;102.872;2023-01-15T04:20:58;26.70;;;16.38;;
18574;SDS011;9417;16.484;102.872;2023-01-15T04:23:09;22.20;;;14.77;;
18574;SDS011;9417;16.484;102.872;2023-01-15T04:25:16;22.95;;;16.15;;
18574;SDS011;9417;16.484;102.872;2023-01-15T04:27:23;21.55;;;14.55;;
18574;SDS011;9417;16.484;102.872;2023-01-15T04:29:32;20.45;;;14.38;;
18574;SDS011;9417;16.484;102.872;2023-01-15T04:31:39;19.02;;;14.40;;
18574;SDS011;9417;16.484;102.872;2023-01-15T04:33:47;18.20;;;12.80;;
18574;SDS011;9417;16.484;102.872;2023-01-15T04:35:57;19.58;;;13.80;;
18574;SDS011;9417;16.484;102.872;2023-01-15T04:38:04;20.58;;;14.70;;
18574;SDS011;9417;16.484;102.872;2023-01-15T04:40:12;23.67;;;14.40;;
18574;SDS011;9417;16.484;102.872;2023-01-15T04:42:39;19.75;;;14.68;;
18574;SDS011;9417;16.484;102.872;2023-01-15T04:45:03;20.30;;;14.43;;
18574;SDS011;9417;16.484;102.872;2023-01-15T04:47:11;19.55;;;13.88;;
18574;SDS011;9417;16.484;102.872;2023-01-15T04:49:20;16.65;;;10.13;;
18574;SDS011;9417;16.484;102.872;2023-01-15T04:51:27;15.73;;;10.88;;
18574;SDS011;9417;16.484;102.872;2023-01-15T04:53:34;17.58;;;11.45;;
18574;SDS011;9417;16.484;102.872;2023-01-15T04:55:41;20.98;;;13.60;;
18574;SDS011;9417;16.484;102.872;2023-01-15T04:57:48;14.80;;;11.23;;
18574;SDS011;9417;16.484;102.872;2023-01-15T04:59:56;19.58;;;12.02;;
18574;SDS011;9417;16.484;102.872;2023-01-15T05:02:03;18.80;;;11.80;;
18574;SDS011;9417;16.484;102.872;2023-01-15T05:04:10;17.00;;;12.60;;
18574;SDS011;9417;16.484;102.872;2023-01-15T05:06:19;17.73;;;12.43;;
18574;SDS011;9417;16.484;102.872;2023-01-15T05:08:26;17.40;;;11.90;;
18574;SDS011;9417;16.484;102.872;2023-01-15T05:10:33;16.38;;;10.88;;
18574;SDS011;9417;16.484;102.872;2023-01-15T05:12:40;16.55;;;12.73;;
18574;SDS011;9417;16.484;102.872;2023-01-15T05:14:47;18.42;;;13.25;;
18574;SDS011;9417;16.484;102.872;2023-01-15T05:16:55;17.10;;;12.18;;
18574;SDS011;9417;16.484;102.872;2023-01-15T05:19:02;16.88;;;12.65;;
18574;SDS011;9417;16.484;102.872;2023-01-15T05:21:15;16.77;;;12.38;;
18574;SDS011;9417;16.484;102.872;2023-01-15T05:23:26;16.63;;;12.05;;
18574;SDS011;9417;16.484;102.872;2023-01-15T05:25:35;14.35;;;10.63;;
18574;SDS011;9417;16.484;102.872;2023-01-15T05:27:42;15.75;;;11.52;;
18574;SDS011;9417;16.484;102.872;2023-01-15T05:29:49;16.10;;;11.55;;
18574;SDS011;9417;16.484;102.872;2023-01-15T05:31:56;16.10;;;12.23;;
18574;SDS011;9417;16.484;102.872;2023-01-15T05:34:03;18.75;;;12.75;;
18574;SDS011;9417;16.484;102.872;2023-01-15T05:36:11;17.05;;;11.60;;
18574;SDS011;9417;16.484;102.872;2023-01-15T05:38:19;15.13;;;10.93;;
18574;SDS011;9417;16.484;102.872;2023-01-15T05:40:28;11.52;;;9.00;;
18574;SDS011;9417;16.484;102.872;2023-01-15T05:42:35;14.90;;;10.88;;
18574;SDS011;9417;16.484;102.872;2023-01-15T05:44:42;20.90;;;13.32;;
18574;SDS011;9417;16.484;102.872;2023-01-15T05:46:49;16.10;;;11.82;;
18574;SDS011;9417;16.484;102.872;2023-01-15T05:48:58;18.33;;;11.65;;
18574;SDS011;9417;16.484;102.872;2023-01-15T05:51:06;19.83;;;11.90;;
18574;SDS011;9417;16.484;102.872;2023-01-15T05:53:13;16.77;;;10.50;;
18574;SDS011;9417;16.484;102.872;2023-01-15T05:55:20;13.70;;;10.13;;
18574;SDS011;9417;16.484;102.872;2023-01-15T05:57:28;15.93;;;11.27;;
18574;SDS011;9417;16.484;102.872;2023-01-15T05:59:36;16.35;;;11.48;;
18574;SDS011;9417;16.484;102.872;2023-01-15T06:01:44;15.65;;;11.40;;
18574;SDS011;9417;16.484;102.872;2023-01-15T06:03:51;14.48;;;11.25;;
18574;SDS011;9417;16.484;102.872;2023-01-15T06:05:58;15.85;;;11.02;;
18574;SDS011;9417;16.484;102.872;2023-01-15T06:08:05;13.80;;;11.40;;
18574;SDS011;9417;16.484;102.872;2023-01-15T06:10:13;14.27;;;11.13;;
18574;SDS011;9417;16.484;102.872;2023-01-15T06:12:21;15.02;;;11.18;;
18574;SDS011;9417;16.484;102.872;2023-01-15T06:14:30;18.38;;;11.80;;
18574;SDS011;9417;16.484;102.872;2023-01-15T06:16:37;14.00;;;11.13;;
18574;SDS011;9417;16.484;102.872;2023-01-15T06:18:44;10.82;;;8.63;;
18574;SDS011;9417;16.484;102.872;2023-01-15T06:20:51;12.18;;;8.68;;
18574;SDS011;9417;16.484;102.872;2023-01-15T06:22:59;10.75;;;9.13;;
18574;SDS011;9417;16.484;102.872;2023-01-15T06:25:06;11.93;;;8.95;;
18574;SDS011;9417;16.484;102.872;2023-01-15T06:27:14;12.25;;;9.00;;
18574;SDS011;9417;16.484;102.872;2023-01-15T06:29:21;12.75;;;9.52;;
18574;SDS011;9417;16.484;102.872;2023-01-15T06:31:30;13.50;;;10.00;;
18574;SDS011;9417;16.484;102.872;2023-01-15T06:33:37;14.38;;;9.40;;
18574;SDS011;9417;16.484;102.872;2023-01-15T06:35:46;14.43;;;9.55;;
18574;SDS011;9417;16.484;102.872;2023-01-15T06:37:53;12.00;;;8.63;;
18574;SDS011;9417;16.484;102.872;2023-01-15T06:40:00;12.07;;;8.57;;
18574;SDS011;9417;16.484;102.872;2023-01-15T06:42:07;12.30;;;8.88;;
18574;SDS011;9417;16.484;102.872;2023-01-15T06:44:31;11.05;;;8.27;;
18574;SDS011;9417;16.484;102.872;2023-01-15T06:46:56;10.93;;;8.13;;
18574;SDS011;9417;16.484;102.872;2023-01-15T06:49:20;10.38;;;8.60;;
18574;SDS011;9417;16.484;102.872;2023-01-15T06:51:27;14.45;;;8.68;;
18574;SDS011;9417;16.484;102.872;2023-01-15T06:53:33;10.90;;;7.88;;
18574;SDS011;9417;16.484;102.872;2023-01-15T06:55:41;10.50;;;7.95;;
18574;SDS011;9417;16.484;102.872;2023-01-15T06:57:48;10.80;;;8.20;;
18574;SDS011;9417;16.484;102.872;2023-01-15T06:59:55;9.30;;;7.57;;
18574;SDS011;9417;16.484;102.872;2023-01-15T07:02:04;9.32;;;7.40;;
18574;SDS011;9417;16.484;102.872;2023-01-15T07:04:11;12.75;;;9.35;;
18574;SDS011;9417;16.484;102.872;2023-01-15T07:06:19;8.63;;;7.57;;
18574;SDS011;9417;16.484;102.872;2023-01-15T07:08:28;13.48;;;8.63;;
18574;SDS011;9417;16.484;102.872;2023-01-15T07:10:35;13.07;;;8.07;;
18574;SDS011;9417;16.484;102.872;2023-01-15T07:12:42;10.65;;;8.25;;
18574;SDS011;9417;16.484;102.872;2023-01-15T07:14:49;12.73;;;8.13;;
18574;SDS011;9417;16.484;102.872;2023-01-15T07:16:56;12.40;;;7.78;;
18574;SDS011;9417;16.484;102.872;2023-01-15T07:19:05;11.68;;;8.80;;
18574;SDS011;9417;16.484;102.872;2023-01-15T07:21:13;14.50;;;8.75;;
18574;SDS011;9417;16.484;102.872;2023-01-15T07:23:20;12.07;;;8.45;;
18574;SDS011;9417;16.484;102.872;2023-01-15T07:25:28;15.18;;;9.98;;
18574;SDS011;9417;16.484;102.872;2023-01-15T07:27:35;13.60;;;8.38;;
18574;SDS011;9417;16.484;102.872;2023-01-15T07:29:42;13.93;;;8.57;;
18574;SDS011;9417;16.484;102.872;2023-01-15T07:31:50;11.27;;;8.13;;
18574;SDS011;9417;16.484;102.872;2023-01-15T07:33:58;13.45;;;8.65;;
18574;SDS011;9417;16.484;102.872;2023-01-15T07:36:07;11.13;;;9.15;;
18574;SDS011;9417;16.484;102.872;2023-01-15T07:38:14;10.27;;;8.30;;
18574;SDS011;9417;16.484;102.872;2023-01-15T07:40:21;10.27;;;8.73;;
18574;SDS011;9417;16.484;102.872;2023-01-15T07:42:28;11.52;;;8.73;;
18574;SDS011;9417;16.484;102.872;2023-01-15T07:44:52;13.10;;;9.30;;
18574;SDS011;9417;16.484;102.872;2023-01-15T07:47:16;10.73;;;8.15;;
18574;SDS011;9417;16.484;102.872;2023-01-15T07:49:42;11.38;;;9.00;;
18574;SDS011;9417;16.484;102.872;2023-01-15T07:51:54;14.20;;;8.55;;
18574;SDS011;9417;16.484;102.872;2023-01-15T07:54:01;12.45;;;8.38;;
18574;SDS011;9417;16.484;102.872;2023-01-15T07:56:08;10.95;;;8.13;;
18574;SDS011;9417;16.484;102.872;2023-01-15T07:58:15;12.63;;;7.72;;
18574;SDS011;9417;16.484;102.872;2023-01-15T08:00:22;12.05;;;8.48;;
18574;SDS011;9417;16.484;102.872;2023-01-15T08:02:30;11.68;;;8.05;;
18574;SDS011;9417;16.484;102.872;2023-01-15T08:04:37;12.55;;;8.88;;
18574;SDS011;9417;16.484;102.872;2023-01-15T08:06:45;10.07;;;8.05;;
18574;SDS011;9417;16.484;102.872;2023-01-15T08:08:53;11.18;;;7.95;;
18574;SDS011;9417;16.484;102.872;2023-01-15T08:11:01;13.73;;;8.05;;
18574;SDS011;9417;16.484;102.872;2023-01-15T08:13:24;12.60;;;8.30;;
18574;SDS011;9417;16.484;102.872;2023-01-15T08:15:48;8.95;;;7.22;;
18574;SDS011;9417;16.484;102.872;2023-01-15T08:17:55;14.38;;;9.05;;
18574;SDS011;9417;16.484;102.872;2023-01-15T08:20:03;9.73;;;7.72;;
18574;SDS011;9417;16.484;102.872;2023-01-15T08:22:12;9.82;;;7.75;;
18574;SDS011;9417;16.484;102.872;2023-01-15T08:24:21;10.05;;;8.00;;
18574;SDS011;9417;16.484;102.872;2023-01-15T08:26:28;9.45;;;7.88;;
18574;SDS011;9417;16.484;102.872;2023-01-15T08:28:35;10.07;;;8.57;;
18574;SDS011;9417;16.484;102.872;2023-01-15T08:30:42;15.38;;;8.40;;
18574;SDS011;9417;16.484;102.872;2023-01-15T08:32:50;10.98;;;8.35;;
18574;SDS011;9417;16.484;102.872;2023-01-15T08:34:56;10.93;;;8.15;;
18574;SDS011;9417;16.484;102.872;2023-01-15T08:37:03;14.95;;;8.05;;
18574;SDS011;9417;16.484;102.872;2023-01-15T08:39:10;13.20;;;8.73;;
18574;SDS011;9417;16.484;102.872;2023-01-15T08:41:19;11.55;;;8.23;;
18574;SDS011;9417;16.484;102.872;2023-01-15T08:43:26;11.52;;;8.27;;
18574;SDS011;9417;16.484;102.872;2023-01-15T08:45:35;11.43;;;7.82;;
18574;SDS011;9417;16.484;102.872;2023-01-15T08:47:42;9.98;;;7.50;;
18574;SDS011;9417;16.484;102.872;2023-01-15T08:49:49;11.48;;;7.60;;
18574;SDS011;9417;16.484;102.872;2023-01-15T08:51:56;9.60;;;7.18;;
18574;SDS011;9417;16.484;102.872;2023-01-15T08:54:03;9.20;;;7.28;;
18574;SDS011;9417;16.484;102.872;2023-01-15T08:56:11;10.45;;;7.50;;
18574;SDS011;9417;16.484;102.872;2023-01-15T08:58:20;8.98;;;6.70;;
18574;SDS011;9417;16.484;102.872;2023-01-15T09:00:27;10.98;;;7.55;;
18574;SDS011;9417;16.484;102.872;2023-01-15T09:02:35;10.15;;;6.80;;
18574;SDS011;9417;16.484;102.872;2023-01-15T09:04:42;12.20;;;9.55;;
18574;SDS011;9417;16.484;102.872;2023-01-15T09:06:49;9.68;;;8.70;;
18574;SDS011;9417;16.484;102.872;2023-01-15T09:08:57;9.73;;;6.88;;
18574;SDS011;9417;16.484;102.872;2023-01-15T09:11:05;11.10;;;6.60;;
18574;SDS011;9417;16.484;102.872;2023-01-15T09:13:15;10.65;;;7.38;;
18574;SDS011;9417;16.484;102.872;2023-01-15T09:15:24;11.05;;;7.47;;
18574;SDS011;9417;16.484;102.872;2023-01-15T09:17:31;9.13;;;7.40;;
18574;SDS011;9417;16.484;102.872;2023-01-15T09:19:42;8.55;;;7.05;;
18574;SDS011;9417;16.484;102.872;2023-01-15T09:21:50;11.65;;;7.25;;
18574;SDS011;9417;16.484;102.872;2023-01-15T09:23:57;9.75;;;7.13;;
18574;SDS011;9417;16.484;102.872;2023-01-15T09:26:05;12.77;;;9.50;;
18574;SDS011;9417;16.484;102.872;2023-01-15T09:28:26;11.63;;;8.57;;
18574;SDS011;9417;16.484;102.872;2023-01-15T09:30:35;12.77;;;8.30;;
18574;SDS011;9417;16.484;102.872;2023-01-15T09:32:42;11.85;;;8.18;;
18574;SDS011;9417;16.484;102.872;2023-01-15T09:34:49;13.40;;;8.68;;
18574;SDS011;9417;16.484;102.872;2023-01-15T09:36:56;11.82;;;8.95;;
18574;SDS011;9417;16.484;102.872;2023-01-15T09:39:03;10.30;;;8.90;;
18574;SDS011;9417;16.484;102.872;2023-01-15T09:41:11;11.57;;;8.63;;
18574;SDS011;9417;16.484;102.872;2023-01-15T09:43:36;14.75;;;9.07;;
18574;SDS011;9417;16.484;102.872;2023-01-15T09:45:55;12.57;;;8.43;;
18574;SDS011;9417;16.484;102.872;2023-01-15T09:48:15;11.70;;;9.57;;
18574;SDS011;9417;16.484;102.872;2023-01-15T09:50:36;13.95;;;9.73;;
18574;SDS011;9417;16.484;102.872;2023-01-15T09:52:57;11.55;;;8.60;;
18574;SDS011;9417;16.484;102.872;2023-01-15T09:55:15;12.55;;;9.15;;
18574;SDS011;9417;16.484;102.872;2023-01-15T09:57:25;12.27;;;9.13;;
18574;SDS011;9417;16.484;102.872;2023-01-15T09:59:33;25.27;;;13.95;;
18574;SDS011;9417;16.484;102.872;2023-01-15T10:01:44;27.25;;;15.60;;
18574;SDS011;9417;16.484;102.872;2023-01-15T10:03:54;20.17;;;12.13;;
18574;SDS011;9417;16.484;102.872;2023-01-15T10:06:07;19.67;;;10.52;;
18574;SDS011;9417;16.484;102.872;2023-01-15T10:08:20;14.48;;;9.50;;
18574;SDS011;9417;16.484;102.872;2023-01-15T10:10:31;13.13;;;10.20;;
18574;SDS011;9417;16.484;102.872;2023-01-15T10:12:45;11.77;;;9.23;;
18574;SDS011;9417;16.484;102.872;2023-01-15T10:14:53;16.00;;;10.48;;
18574;SDS011;9417;16.484;102.872;2023-01-15T10:17:13;16.67;;;10.02;;
18574;SDS011;9417;16.484;102.872;2023-01-15T10:19:30;15.07;;;9.68;;
18574;SDS011;9417;16.484;102.872;2023-01-15T10:21:47;13.52;;;9.85;;
18574;SDS011;9417;16.484;102.872;2023-01-15T10:24:00;16.60;;;10.38;;
18574;SDS011;9417;16.484;102.872;2023-01-15T10:26:13;15.05;;;10.02;;
18574;SDS011;9417;16.484;102.872;2023-01-15T10:28:38;13.93;;;9.95;;
18574;SDS011;9417;16.484;102.872;2023-01-15T10:31:12;15.50;;;10.05;;
18574;SDS011;9417;16.484;102.872;2023-01-15T10:33:35;15.57;;;9.68;;
18574;SDS011;9417;16.484;102.872;2023-01-15T10:35:52;15.27;;;10.50;;
18574;SDS011;9417;16.484;102.872;2023-01-15T10:38:05;17.58;;;9.75;;
18574;SDS011;9417;16.484;102.872;2023-01-15T10:40:26;17.92;;;9.93;;
18574;SDS011;9417;16.484;102.872;2023-01-15T10:42:43;14.27;;;10.57;;
18574;SDS011;9417;16.484;102.872;2023-01-15T10:45:00;16.10;;;10.52;;
18574;SDS011;9417;16.484;102.872;2023-01-15T10:47:15;18.08;;;11.85;;
18574;SDS011;9417;16.484;102.872;2023-01-15T10:49:27;30.00;;;12.50;;
18574;SDS011;9417;16.484;102.872;2023-01-15T10:51:36;19.08;;;11.75;;
18574;SDS011;9417;16.484;102.872;2023-01-15T10:53:48;19.33;;;11.88;;
18574;SDS011;9417;16.484;102.872;2023-01-15T10:56:00;23.42;;;13.57;;
18574;SDS011;9417;16.484;102.872;2023-01-15T10:58:13;26.45;;;14.77;;
18574;SDS011;9417;16.484;102.872;2023-01-15T11:00:26;28.25;;;14.65;;
18574;SDS011;9417;16.484;102.872;2023-01-15T11:02:37;19.70;;;14.02;;
18574;SDS011;9417;16.484;102.872;2023-01-15T11:04:48;30.10;;;13.98;;
18574;SDS011;9417;16.484;102.872;2023-01-15T11:06:56;26.42;;;14.45;;
18574;SDS011;9417;16.484;102.872;2023-01-15T11:09:05;30.58;;;14.68;;
18574;SDS011;9417;16.484;102.872;2023-01-15T11:11:22;27.05;;;14.45;;
18574;SDS011;9417;16.484;102.872;2023-01-15T11:13:59;25.95;;;15.30;;
18574;SDS011;9417;16.484;102.872;2023-01-15T11:16:23;30.77;;;15.73;;
18574;SDS011;9417;16.484;102.872;2023-01-15T11:18:48;29.95;;;15.27;;
18574;SDS011;9417;16.484;102.872;2023-01-15T11:21:14;29.45;;;15.45;;
18574;SDS011;9417;16.484;102.872;2023-01-15T11:23:24;29.15;;;16.83;;
18574;SDS011;9417;16.484;102.872;2023-01-15T11:25:31;30.52;;;18.38;;
18574;SDS011;9417;16.484;102.872;2023-01-15T11:27:39;30.10;;;16.98;;
18574;SDS011;9417;16.484;102.872;2023-01-15T11:29:49;33.05;;;17.88;;
18574;SDS011;9417;16.484;102.872;2023-01-15T11:31:58;32.22;;;19.60;;
18574;SDS011;9417;16.484;102.872;2023-01-15T11:34:13;34.33;;;19.42;;
18574;SDS011;9417;16.484;102.872;2023-01-15T11:36:26;36.05;;;20.25;;
18574;SDS011;9417;16.484;102.872;2023-01-15T11:38:41;33.30;;;19.17;;
18574;SDS011;9417;16.484;102.872;2023-01-15T11:40:50;37.53;;;20.83;;
18574;SDS011;9417;16.484;102.872;2023-01-15T11:42:59;45.25;;;24.23;;
18574;SDS011;9417;16.484;102.872;2023-01-15T11:45:23;39.08;;;25.13;;
18574;SDS011;9417;16.484;102.872;2023-01-15T11:47:49;51.88;;;28.85;;
18574;SDS011;9417;16.484;102.872;2023-01-15T11:50:16;50.15;;;26.50;;
18574;SDS011;9417;16.484;102.872;2023-01-15T11:52:44;46.28;;;23.88;;
18574;SDS011;9417;16.484;102.872;2023-01-15T11:54:53;45.35;;;23.65;;
18574;SDS011;9417;16.484;102.872;2023-01-15T11:57:01;47.35;;;24.23;;
18574;SDS011;9417;16.484;102.872;2023-01-15T11:59:09;51.85;;;26.55;;
18574;SDS011;9417;16.484;102.872;2023-01-15T12:01:21;42.80;;;25.48;;
18574;SDS011;9417;16.484;102.872;2023-01-15T12:03:31;50.17;;;28.38;;
18574;SDS011;9417;16.484;102.872;2023-01-15T12:05:44;61.30;;;31.60;;
18574;SDS011;9417;16.484;102.872;2023-01-15T12:07:54;66.38;;;35.03;;
18574;SDS011;9417;16.484;102.872;2023-01-15T12:10:10;72.65;;;39.50;;
18574;SDS011;9417;16.484;102.872;2023-01-15T12:12:53;81.05;;;41.15;;
18574;SDS011;9417;16.484;102.872;2023-01-15T12:17:26;49.88;;;26.80;;
18574;SDS011;9417;16.484;102.872;2023-01-15T12:19:42;51.15;;;28.83;;
18574;SDS011;9417;16.484;102.872;2023-01-15T12:22:00;49.83;;;28.20;;
18574;SDS011;9417;16.484;102.872;2023-01-15T12:24:31;60.03;;;32.75;;
18574;SDS011;9417;16.484;102.872;2023-01-15T12:27:03;67.25;;;35.03;;
18574;SDS011;9417;16.484;102.872;2023-01-15T12:29:21;62.65;;;32.30;;
18574;SDS011;9417;16.484;102.872;2023-01-15T12:31:34;54.92;;;29.88;;
18574;SDS011;9417;16.484;102.872;2023-01-15T12:33:47;53.17;;;30.65;;
18574;SDS011;9417;16.484;102.872;2023-01-15T12:35:59;55.72;;;31.60;;
18574;SDS011;9417;16.484;102.872;2023-01-15T12:38:12;56.55;;;32.00;;
18574;SDS011;9417;16.484;102.872;2023-01-15T12:40:27;55.53;;;32.33;;
18574;SDS011;9417;16.484;102.872;2023-01-15T12:42:47;59.38;;;33.42;;
18574;SDS011;9417;16.484;102.872;2023-01-15T12:45:14;58.22;;;32.53;;
18574;SDS011;9417;16.484;102.872;2023-01-15T12:47:25;55.97;;;31.92;;
18574;SDS011;9417;16.484;102.872;2023-01-15T12:49:39;55.97;;;31.55;;